Time;durP1;ratioP1;P1;durP2;ratioP2;P2;SDS_P1;SDS_P2;PMS_P1;PMS_P2;Temp;Humidity;BMP_temperature;BMP_pressure;BME280_temperature;BME280_humidity;BME280_pressure;Samples;Min_cycle;Max_cycle;Signal;HPM_P1;HPM_P2
2023/11/18 00:00:12;;;;;;;62.47;22.10;;;3.70;99.90;;;;;;4980931;28;20526;-72
2023/11/18 00:02:38;;;;;;;63.90;22.70;;;3.70;99.90;;;;;;4982020;28;20184;-71
2023/11/18 00:05:07;;;;;;;56.57;20.07;;;3.70;99.90;;;;;;4978753;28;20454;-69
2023/11/18 00:07:32;;;;;;;54.60;19.03;;;3.70;99.90;;;;;;4979714;28;20408;-70
2023/11/18 00:09:58;;;;;;;45.97;18.87;;;3.80;99.90;;;;;;4981484;28;20431;-71
2023/11/18 00:12:25;;;;;;;48.97;19.30;;;3.80;99.90;;;;;;5000662;28;20223;-69
2023/11/18 00:14:51;;;;;;;68.77;25.20;;;3.80;99.90;;;;;;5010220;28;20219;-71
2023/11/18 00:17:18;;;;;;;73.17;24.93;;;3.80;99.90;;;;;;4979974;28;20419;-71
2023/11/18 00:19:44;;;;;;;89.60;27.60;;;3.80;99.90;;;;;;4979606;28;20185;-70
2023/11/18 00:22:11;;;;;;;77.63;24.03;;;3.90;99.90;;;;;;4978209;28;20493;-72
2023/11/18 00:24:37;;;;;;;61.63;22.67;;;3.80;99.90;;;;;;4980047;28;20462;-71
2023/11/18 00:27:06;;;;;;;119.43;31.70;;;3.90;99.90;;;;;;4979540;28;20455;-71
2023/11/18 00:29:35;;;;;;;94.67;29.03;;;3.80;99.90;;;;;;5021910;28;20434;-70
2023/11/18 00:32:02;;;;;;;104.13;28.77;;;3.90;99.90;;;;;;4978825;28;20466;-70
2023/11/18 00:34:29;;;;;;;73.37;25.17;;;3.90;99.90;;;;;;4978502;28;20842;-69
2023/11/18 00:36:57;;;;;;;83.67;26.90;;;3.90;99.90;;;;;;4977291;28;20430;-75
2023/11/18 00:39:23;;;;;;;111.63;29.70;;;3.90;99.90;;;;;;4978117;28;20520;-72
2023/11/18 00:41:49;;;;;;;85.77;27.10;;;3.90;99.90;;;;;;4983019;28;20432;-74
2023/11/18 00:44:15;;;;;;;90.20;25.37;;;4.00;99.90;;;;;;5031742;28;20464;-74
2023/11/18 00:46:41;;;;;;;82.63;28.37;;;3.90;99.90;;;;;;4988597;28;20188;-69
2023/11/18 00:49:07;;;;;;;95.17;28.43;;;3.90;99.90;;;;;;4977252;28;20238;-70
2023/11/18 00:51:33;;;;;;;77.70;26.57;;;3.90;99.90;;;;;;4979326;28;20775;-69
2023/11/18 00:54:05;;;;;;;85.53;24.80;;;3.90;99.90;;;;;;4981057;28;20771;-70
2023/11/18 00:56:33;;;;;;;82.00;26.07;;;3.90;99.90;;;;;;4983476;28;20466;-71
2023/11/18 00:59:01;;;;;;;76.13;25.80;;;3.90;99.90;;;;;;4991546;28;20424;-69
2023/11/18 01:01:27;;;;;;;74.73;23.80;;;3.90;99.90;;;;;;4983673;28;20513;-69
2023/11/18 01:03:53;;;;;;;81.17;27.43;;;3.80;99.90;;;;;;4982107;28;20396;-69
2023/11/18 01:06:19;;;;;;;91.63;26.13;;;3.90;99.90;;;;;;4982704;28;20448;-68
2023/11/18 01:08:48;;;;;;;83.77;24.17;;;3.90;99.90;;;;;;4981727;28;20420;-69
2023/11/18 01:11:22;;;;;;;75.57;25.47;;;3.80;99.90;;;;;;4980279;28;20743;-69
2023/11/18 01:13:48;;;;;;;84.20;27.27;;;3.90;99.90;;;;;;4981029;28;20508;-70
2023/11/18 01:16:14;;;;;;;72.10;25.40;;;3.90;99.90;;;;;;4991471;28;20459;-69
2023/11/18 01:18:41;;;;;;;64.13;24.17;;;3.90;99.90;;;;;;4980614;28;20699;-69
2023/11/18 01:21:08;;;;;;;67.67;25.07;;;3.90;99.90;;;;;;4981181;28;20446;-69
2023/11/18 01:23:38;;;;;;;74.20;24.83;;;3.90;99.90;;;;;;4979540;28;20716;-68
2023/11/18 01:26:05;;;;;;;77.40;24.13;;;3.90;99.90;;;;;;4979439;28;20447;-69
2023/11/18 01:28:39;;;;;;;78.27;25.40;;;3.90;99.90;;;;;;5028502;28;20432;-69
2023/11/18 01:31:04;;;;;;;78.13;25.63;;;3.90;99.90;;;;;;4976408;28;20420;-68
2023/11/18 01:33:32;;;;;;;87.97;27.50;;;3.90;99.90;;;;;;4979051;28;20527;-68
2023/11/18 01:35:58;;;;;;;67.23;26.37;;;3.90;99.90;;;;;;4979657;28;20493;-69
2023/11/18 01:38:26;;;;;;;72.30;26.60;;;3.90;99.90;;;;;;4979709;28;20871;-69
2023/11/18 01:40:53;;;;;;;67.17;27.73;;;3.90;99.90;;;;;;4979269;28;20462;-70
2023/11/18 01:43:19;;;;;;;72.97;26.67;;;4.00;99.90;;;;;;5022653;28;20766;-68
2023/11/18 01:45:46;;;;;;;65.93;23.70;;;4.00;99.90;;;;;;4978820;28;20447;-68
2023/11/18 01:48:13;;;;;;;77.57;26.33;;;4.00;99.90;;;;;;4978610;28;20509;-68
2023/11/18 01:50:41;;;;;;;70.10;26.50;;;4.00;99.90;;;;;;4977432;28;20505;-71
2023/11/18 01:53:09;;;;;;;74.40;24.40;;;4.00;99.90;;;;;;4961981;28;20477;-70
2023/11/18 01:55:35;;;;;;;67.93;25.60;;;4.00;99.90;;;;;;4979803;28;20435;-69
2023/11/18 01:58:08;;;;;;;65.00;26.00;;;4.00;99.90;;;;;;5016971;28;20427;-70
2023/11/18 02:00:38;;;;;;;70.70;26.50;;;4.10;99.90;;;;;;4978698;28;20291;-69
2023/11/18 02:03:05;;;;;;;58.47;23.97;;;4.10;99.90;;;;;;4980748;28;20423;-73
2023/11/18 02:05:34;;;;;;;57.83;24.63;;;4.10;99.90;;;;;;4978791;28;20824;-69
2023/11/18 02:08:03;;;;;;;59.37;24.30;;;4.10;99.90;;;;;;4978204;28;20412;-67
2023/11/18 02:10:30;;;;;;;54.33;24.20;;;4.10;99.90;;;;;;4977037;28;20419;-67
2023/11/18 02:13:11;;;;;;;51.50;23.07;;;4.10;99.90;;;;;;5009507;28;20479;-69
2023/11/18 02:15:39;;;;;;;53.30;23.37;;;4.10;99.90;;;;;;5019640;28;20448;-69
2023/11/18 02:18:09;;;;;;;46.33;23.07;;;4.10;99.90;;;;;;4978291;28;20423;-68
2023/11/18 02:20:35;;;;;;;51.60;23.00;;;4.10;99.90;;;;;;4977947;28;20408;-69
2023/11/18 02:23:02;;;;;;;52.10;23.67;;;4.10;99.90;;;;;;4977157;28;20431;-69
2023/11/18 02:25:29;;;;;;;52.60;23.27;;;4.10;99.90;;;;;;4976824;28;20444;-68
2023/11/18 02:27:54;;;;;;;54.60;23.57;;;4.10;99.90;;;;;;4972732;28;20424;-69
2023/11/18 02:30:20;;;;;;;55.30;22.90;;;4.10;99.90;;;;;;4980973;28;20427;-68
2023/11/18 02:33:02;;;;;;;55.37;23.10;;;4.10;99.90;;;;;;4976631;28;20227;-69
2023/11/18 02:35:37;;;;;;;65.63;25.33;;;4.10;99.90;;;;;;4976248;28;20447;-69
2023/11/18 02:38:04;;;;;;;58.27;23.53;;;4.10;99.90;;;;;;4978051;28;20427;-70
2023/11/18 02:40:36;;;;;;;55.80;23.37;;;4.10;99.90;;;;;;4977554;28;20443;-69
2023/11/18 02:43:05;;;;;;;52.60;23.67;;;4.20;99.90;;;;;;4999509;28;20444;-70
2023/11/18 02:45:31;;;;;;;63.13;25.50;;;4.20;99.90;;;;;;5008673;28;20494;-68
2023/11/18 02:47:58;;;;;;;57.57;24.20;;;4.20;99.90;;;;;;4976780;28;20946;-68
2023/11/18 02:50:25;;;;;;;58.07;24.73;;;4.20;99.90;;;;;;4976796;28;20520;-69
2023/11/18 02:52:50;;;;;;;49.17;22.33;;;4.20;99.90;;;;;;4976664;28;20495;-68
2023/11/18 02:55:16;;;;;;;52.00;22.97;;;4.20;99.90;;;;;;4977540;28;20739;-69
2023/11/18 02:57:42;;;;;;;55.37;24.03;;;4.20;99.90;;;;;;4982168;28;20196;-70
2023/11/18 03:00:17;;;;;;;48.93;22.23;;;4.20;99.90;;;;;;4982221;28;20184;-69
2023/11/18 03:02:42;;;;;;;58.97;23.90;;;4.20;99.90;;;;;;4977750;28;20196;-69
2023/11/18 03:05:11;;;;;;;51.87;22.67;;;4.30;99.90;;;;;;4977677;28;20719;-70
2023/11/18 03:07:37;;;;;;;52.83;24.27;;;4.30;99.90;;;;;;4977386;28;20189;-70
2023/11/18 03:10:09;;;;;;;46.70;21.90;;;4.30;99.90;;;;;;4976483;28;20792;-68
2023/11/18 03:12:35;;;;;;;51.07;22.30;;;4.30;99.90;;;;;;4987116;28;20468;-69
2023/11/18 03:15:01;;;;;;;50.60;22.67;;;4.30;99.90;;;;;;4997030;28;20497;-67
2023/11/18 03:17:27;;;;;;;41.07;19.23;;;4.30;99.90;;;;;;4977119;28;20572;-69
2023/11/18 03:19:53;;;;;;;50.53;22.40;;;4.30;99.90;;;;;;4976664;28;20219;-69
2023/11/18 03:22:19;;;;;;;51.00;23.90;;;4.30;99.90;;;;;;4976340;28;20921;-69
2023/11/18 03:24:44;;;;;;;41.40;18.90;;;4.30;99.90;;;;;;4977835;28;20542;-70
2023/11/18 03:27:10;;;;;;;44.50;20.03;;;4.30;99.90;;;;;;4981949;28;20508;-71
2023/11/18 03:29:37;;;;;;;49.00;22.97;;;4.30;99.90;;;;;;4976483;28;20191;-69
2023/11/18 03:32:05;;;;;;;53.37;23.17;;;4.40;99.90;;;;;;4977057;28;20212;-69
2023/11/18 03:34:30;;;;;;;49.60;24.63;;;4.30;99.90;;;;;;4976969;28;20424;-70
2023/11/18 03:36:57;;;;;;;36.93;19.77;;;4.30;99.90;;;;;;4975177;28;20422;-68
2023/11/18 03:39:22;;;;;;;42.87;20.97;;;4.30;99.90;;;;;;4977261;28;20610;-68
2023/11/18 03:41:49;;;;;;;43.27;19.90;;;4.30;99.90;;;;;;4978911;28;20455;-70
2023/11/18 03:44:15;;;;;;;39.77;21.70;;;4.30;99.90;;;;;;4985613;28;20565;-70
2023/11/18 03:46:42;;;;;;;40.63;21.77;;;4.30;99.90;;;;;;4977426;28;20479;-67
2023/11/18 03:49:07;;;;;;;44.67;21.37;;;4.20;99.90;;;;;;4977399;28;20219;-69
2023/11/18 03:51:33;;;;;;;42.83;18.93;;;4.20;99.90;;;;;;4976098;28;20843;-69
2023/11/18 03:53:58;;;;;;;36.97;18.87;;;4.20;99.90;;;;;;4977415;28;20189;-69
2023/11/18 03:56:26;;;;;;;39.63;18.90;;;4.10;99.90;;;;;;4974667;28;20216;-69
2023/11/18 03:58:53;;;;;;;41.83;20.97;;;4.10;99.90;;;;;;4984184;28;20192;-68
2023/11/18 04:01:23;;;;;;;41.97;18.90;;;4.10;99.90;;;;;;4975754;28;20672;-68
2023/11/18 04:03:50;;;;;;;38.77;18.30;;;4.00;99.90;;;;;;4976226;28;20207;-69
2023/11/18 04:06:17;;;;;;;44.70;19.77;;;4.00;99.90;;;;;;4976414;28;20482;-69
2023/11/18 04:08:45;;;;;;;33.00;17.70;;;4.00;99.90;;;;;;4976784;28;20884;-69
2023/11/18 04:11:12;;;;;;;43.50;21.10;;;4.00;99.90;;;;;;4976850;28;20439;-68
2023/11/18 04:13:38;;;;;;;39.17;21.50;;;3.90;99.90;;;;;;5019195;28;20443;-69
2023/11/18 04:16:04;;;;;;;36.27;20.40;;;3.90;99.90;;;;;;5027253;28;20789;-68
2023/11/18 04:18:30;;;;;;;37.40;18.57;;;4.00;99.90;;;;;;4975784;28;20188;-68
2023/11/18 04:20:58;;;;;;;39.60;19.77;;;4.00;99.90;;;;;;4976361;28;20711;-68
2023/11/18 04:23:23;;;;;;;46.27;23.30;;;4.00;99.90;;;;;;4976547;28;20912;-69
2023/11/18 04:25:50;;;;;;;38.03;20.47;;;4.00;99.90;;;;;;4980057;28;20443;-68
2023/11/18 04:28:16;;;;;;;39.20;20.23;;;4.00;99.90;;;;;;5018518;28;20423;-67
2023/11/18 04:30:41;;;;;;;43.20;20.80;;;4.00;99.90;;;;;;4991392;28;20220;-70
2023/11/18 04:33:07;;;;;;;41.97;19.50;;;4.00;99.90;;;;;;4978981;28;20649;-69
2023/11/18 04:35:34;;;;;;;39.80;21.23;;;4.00;99.90;;;;;;4977680;28;20235;-69
2023/11/18 04:38:00;;;;;;;36.47;18.13;;;4.00;99.90;;;;;;4978101;28;20180;-67
2023/11/18 04:40:25;;;;;;;40.80;19.77;;;4.00;99.90;;;;;;4977898;28;20459;-68
2023/11/18 04:42:51;;;;;;;41.07;21.00;;;4.00;99.90;;;;;;5010230;28;20192;-69
2023/11/18 04:45:17;;;;;;;37.73;21.30;;;4.00;99.90;;;;;;5018197;28;20542;-69
2023/11/18 04:47:43;;;;;;;44.13;22.17;;;4.00;99.90;;;;;;4976747;28;20579;-69
2023/11/18 04:50:10;;;;;;;43.80;21.53;;;4.10;99.90;;;;;;4978188;28;20236;-70
2023/11/18 04:52:36;;;;;;;43.57;21.23;;;4.00;99.90;;;;;;4979784;28;20501;-69
2023/11/18 04:55:03;;;;;;;37.73;21.70;;;4.00;99.90;;;;;;4976663;28;20459;-68
2023/11/18 04:57:28;;;;;;;43.67;19.57;;;4.00;99.90;;;;;;5005736;28;20181;-68
2023/11/18 04:59:54;;;;;;;39.80;20.23;;;4.00;99.90;;;;;;4978142;28;20515;-68
2023/11/18 05:02:20;;;;;;;51.27;21.87;;;4.10;99.90;;;;;;4977331;28;20275;-69
2023/11/18 05:04:45;;;;;;;37.23;20.33;;;4.10;99.90;;;;;;4977004;28;20390;-68
2023/11/18 05:07:11;;;;;;;43.13;20.73;;;4.10;99.90;;;;;;4976682;28;20211;-68
2023/11/18 05:09:37;;;;;;;40.27;19.47;;;4.10;99.90;;;;;;4976689;28;20188;-68
2023/11/18 05:12:03;;;;;;;40.53;21.00;;;4.10;99.90;;;;;;4990854;28;20251;-69
2023/11/18 05:14:28;;;;;;;40.33;20.33;;;4.20;99.90;;;;;;5003934;28;20431;-68
2023/11/18 05:16:54;;;;;;;43.00;22.23;;;4.30;99.90;;;;;;4984858;28;20430;-67
2023/11/18 05:19:20;;;;;;;43.00;20.37;;;4.30;99.90;;;;;;4976713;28;20193;-68
2023/11/18 05:21:49;;;;;;;38.70;20.30;;;4.30;99.90;;;;;;4976005;28;20188;-67
2023/11/18 05:24:15;;;;;;;41.23;21.67;;;4.20;99.90;;;;;;4977037;28;20946;-68
2023/11/18 05:26:40;;;;;;;42.40;19.60;;;4.20;99.90;;;;;;4977629;28;20432;-68
2023/11/18 05:29:06;;;;;;;40.60;19.90;;;4.20;99.90;;;;;;5015973;28;20465;-67
2023/11/18 05:31:33;;;;;;;41.07;21.73;;;4.20;99.90;;;;;;4996831;28;20208;-68
2023/11/18 05:33:58;;;;;;;41.57;21.00;;;4.20;99.90;;;;;;4976537;28;20271;-68
2023/11/18 05:36:27;;;;;;;36.20;17.57;;;4.30;99.90;;;;;;4975899;28;20475;-68
2023/11/18 05:38:54;;;;;;;35.40;18.73;;;4.30;99.90;;;;;;4976102;28;20488;-69
2023/11/18 05:41:27;;;;;;;43.07;20.83;;;4.30;99.90;;;;;;4977063;28;20424;-68
2023/11/18 05:43:56;;;;;;;43.80;20.40;;;4.30;99.90;;;;;;4987088;28;20467;-69
2023/11/18 05:46:25;;;;;;;41.73;20.10;;;4.30;99.90;;;;;;4994407;28;20477;-68
2023/11/18 05:48:52;;;;;;;38.20;19.60;;;4.40;99.90;;;;;;4976273;28;20416;-69
2023/11/18 05:51:25;;;;;;;41.23;19.47;;;4.40;99.90;;;;;;4975997;28;20460;-68
2023/11/18 05:53:51;;;;;;;40.47;19.93;;;4.40;99.90;;;;;;4976881;28;20547;-69
2023/11/18 05:56:17;;;;;;;38.30;20.20;;;4.40;99.90;;;;;;4976376;28;20943;-68
2023/11/18 05:58:43;;;;;;;32.20;18.50;;;4.40;99.90;;;;;;4981931;28;20479;-69
2023/11/18 06:01:10;;;;;;;41.67;20.07;;;4.40;99.90;;;;;;4977204;28;20768;-68
2023/11/18 06:03:39;;;;;;;35.57;18.10;;;4.50;99.90;;;;;;4977395;28;20491;-68
2023/11/18 06:06:10;;;;;;;40.80;20.10;;;4.50;99.90;;;;;;4977408;28;20719;-68
2023/11/18 06:08:40;;;;;;;42.13;19.33;;;4.50;99.90;;;;;;4977727;28;20862;-68
2023/11/18 06:11:15;;;;;;;37.57;19.40;;;4.50;99.90;;;;;;4976794;28;20432;-69
2023/11/18 06:13:43;;;;;;;31.53;17.40;;;4.50;99.90;;;;;;4980456;28;20870;-68
2023/11/18 06:16:26;;;;;;;39.47;19.90;;;4.60;99.90;;;;;;4988903;28;20523;-69
2023/11/18 06:18:56;;;;;;;40.87;19.30;;;4.60;99.90;;;;;;4979829;28;20744;-68
2023/11/18 06:21:24;;;;;;;35.17;18.67;;;4.60;99.90;;;;;;4980106;28;20432;-69
2023/11/18 06:23:50;;;;;;;47.27;19.13;;;4.60;99.90;;;;;;4980575;28;20447;-69
2023/11/18 06:26:17;;;;;;;30.30;17.67;;;4.60;99.90;;;;;;4979988;28;20509;-68
2023/11/18 06:28:44;;;;;;;35.03;18.50;;;4.60;99.90;;;;;;4985700;28;20427;-69
2023/11/18 06:31:11;;;;;;;37.83;19.00;;;4.70;99.90;;;;;;4991206;28;20422;-69
2023/11/18 06:33:47;;;;;;;35.40;18.30;;;4.70;99.90;;;;;;4976912;28;20412;-69
2023/11/18 06:36:16;;;;;;;31.57;18.03;;;4.70;99.90;;;;;;4980632;28;20542;-73
2023/11/18 06:38:44;;;;;;;37.40;17.90;;;4.70;99.90;;;;;;4975948;28;20423;-72
2023/11/18 06:41:12;;;;;;;33.13;18.03;;;4.70;99.90;;;;;;4976577;28;20866;-68
2023/11/18 06:43:51;;;;;;;30.27;17.53;;;4.80;99.90;;;;;;4984321;28;20507;-68
2023/11/18 06:46:25;;;;;;;30.43;16.57;;;4.80;99.90;;;;;;5027700;28;20451;-68
2023/11/18 06:48:55;;;;;;;31.20;16.70;;;4.80;99.90;;;;;;4977117;28;20422;-69
2023/11/18 06:51:24;;;;;;;30.73;16.43;;;4.70;99.90;;;;;;4977483;28;20460;-70
2023/11/18 06:53:57;;;;;;;30.07;17.10;;;4.70;99.90;;;;;;4967831;28;20451;-69
2023/11/18 06:56:23;;;;;;;26.37;15.70;;;4.70;99.90;;;;;;4977286;28;20440;-68
2023/11/18 06:58:48;;;;;;;26.13;16.50;;;4.70;99.90;;;;;;5013851;28;20482;-68
2023/11/18 07:01:15;;;;;;;29.23;16.17;;;4.70;99.90;;;;;;4977491;28;20416;-68
2023/11/18 07:03:44;;;;;;;26.33;16.10;;;4.70;99.90;;;;;;4977099;28;20244;-68
2023/11/18 07:06:10;;;;;;;30.23;15.97;;;4.70;99.90;;;;;;4977078;28;20468;-68
2023/11/18 07:08:37;;;;;;;32.80;17.23;;;4.70;99.90;;;;;;4977088;28;20434;-69
2023/11/18 07:11:03;;;;;;;29.80;17.00;;;4.70;99.90;;;;;;4975895;28;20730;-69
2023/11/18 07:13:29;;;;;;;26.50;16.67;;;4.80;99.90;;;;;;4978360;28;20768;-69
2023/11/18 07:15:56;;;;;;;25.80;16.03;;;4.80;99.90;;;;;;5017240;28;20490;-70
2023/11/18 07:18:23;;;;;;;28.73;17.70;;;4.80;99.90;;;;;;4977032;28;20415;-70
2023/11/18 07:20:51;;;;;;;30.63;16.40;;;4.80;99.90;;;;;;4977147;28;20416;-70
2023/11/18 07:23:17;;;;;;;31.30;16.60;;;4.90;99.90;;;;;;4977217;28;20427;-70
2023/11/18 07:25:44;;;;;;;24.77;15.10;;;4.90;99.90;;;;;;4977731;28;20479;-71
2023/11/18 07:28:10;;;;;;;26.03;15.53;;;4.90;99.90;;;;;;5004868;28;20458;-70
2023/11/18 07:30:37;;;;;;;27.87;15.60;;;5.00;99.90;;;;;;4979108;28;20413;-70
2023/11/18 07:33:03;;;;;;;28.13;16.60;;;5.00;99.90;;;;;;4977125;28;20470;-70
2023/11/18 07:35:29;;;;;;;32.97;18.83;;;5.00;99.90;;;;;;4977870;28;20432;-69
2023/11/18 07:37:56;;;;;;;26.17;15.10;;;5.10;99.90;;;;;;4977755;28;20440;-69
2023/11/18 07:40:27;;;;;;;27.60;16.30;;;5.10;99.90;;;;;;4977642;28;20427;-68
2023/11/18 07:42:55;;;;;;;26.10;16.00;;;5.20;99.90;;;;;;4998735;28;20440;-69
2023/11/18 07:45:23;;;;;;;23.10;13.87;;;5.20;99.90;;;;;;5005576;28;20502;-71
2023/11/18 07:47:50;;;;;;;29.60;16.27;;;5.20;99.90;;;;;;4976711;28;20470;-70
2023/11/18 07:50:17;;;;;;;24.53;13.60;;;5.30;99.90;;;;;;4976183;28;20472;-71
2023/11/18 07:52:43;;;;;;;25.83;13.67;;;5.40;99.90;;;;;;4977395;28;20468;-69
2023/11/18 07:55:11;;;;;;;22.30;13.63;;;5.40;99.90;;;;;;4977164;28;20514;-70
2023/11/18 07:57:36;;;;;;;22.90;14.00;;;5.40;99.90;;;;;;4991707;28;20244;-71
2023/11/18 08:00:08;;;;;;;22.20;13.57;;;5.50;99.90;;;;;;4975961;28;20408;-69
2023/11/18 08:02:39;;;;;;;22.17;12.70;;;5.50;99.90;;;;;;4977844;28;20259;-71
2023/11/18 08:05:07;;;;;;;25.63;13.33;;;5.50;99.90;;;;;;4979183;28;20786;-69
2023/11/18 08:07:35;;;;;;;22.10;13.80;;;5.50;99.90;;;;;;4976945;28;20196;-70
2023/11/18 08:10:03;;;;;;;19.40;13.17;;;5.50;99.90;;;;;;4977846;28;20545;-71
2023/11/18 08:12:30;;;;;;;25.20;14.63;;;5.60;99.90;;;;;;4976222;28;20608;-69
2023/11/18 08:14:55;;;;;;;20.00;12.73;;;5.60;99.90;;;;;;4978590;28;20456;-72
2023/11/18 08:17:21;;;;;;;20.13;12.33;;;5.60;99.90;;;;;;4977847;28;20415;-70
2023/11/18 08:19:46;;;;;;;21.80;12.50;;;5.70;99.90;;;;;;4978227;28;20200;-70
2023/11/18 08:22:13;;;;;;;19.57;12.30;;;5.70;99.90;;;;;;4977869;28;20261;-69
2023/11/18 08:24:39;;;;;;;19.60;12.03;;;5.70;99.90;;;;;;4977688;28;20207;-70
2023/11/18 08:27:06;;;;;;;20.90;12.70;;;5.80;99.90;;;;;;4982235;28;20434;-72
2023/11/18 08:29:32;;;;;;;17.90;11.97;;;5.80;99.90;;;;;;5008978;28;20185;-69
2023/11/18 08:31:58;;;;;;;19.37;11.57;;;5.90;99.90;;;;;;4980427;28;20734;-71
2023/11/18 08:34:25;;;;;;;17.03;10.40;;;5.90;99.90;;;;;;4979776;28;20408;-72
2023/11/18 08:36:52;;;;;;;17.17;11.03;;;5.90;99.90;;;;;;4980115;28;20268;-71
2023/11/18 08:39:20;;;;;;;19.40;12.27;;;5.90;99.90;;;;;;4979715;28;20489;-70
2023/11/18 08:41:50;;;;;;;19.00;12.50;;;6.00;99.90;;;;;;4978468;28;20526;-69
2023/11/18 08:44:16;;;;;;;15.67;11.13;;;6.10;99.90;;;;;;4985642;28;20428;-71
2023/11/18 08:46:42;;;;;;;18.90;12.67;;;6.10;99.90;;;;;;4977091;28;20428;-70
2023/11/18 08:49:10;;;;;;;17.77;12.17;;;6.20;99.90;;;;;;4977780;28;20575;-72
2023/11/18 08:51:41;;;;;;;17.03;11.33;;;6.30;99.90;;;;;;4977692;28;20482;-73
2023/11/18 08:54:37;;;;;;;20.30;12.30;;;6.30;99.90;;;;;;4977190;28;20554;-72
2023/11/18 08:56:57;;;;;;;19.23;10.73;;;6.30;99.90;;;;;;4987289;28;20488;-70
2023/11/18 08:59:25;;;;;;;19.00;12.10;;;6.40;99.90;;;;;;4999049;28;20694;-70
2023/11/18 09:01:55;;;;;;;17.47;10.40;;;6.40;99.90;;;;;;4977622;28;20481;-71
2023/11/18 09:04:25;;;;;;;17.20;12.50;;;6.40;99.90;;;;;;4979047;28;20440;-72
2023/11/18 09:06:53;;;;;;;16.27;11.13;;;6.50;99.90;;;;;;4977536;28;20619;-70
2023/11/18 09:09:26;;;;;;;18.53;10.87;;;6.50;99.90;;;;;;4982125;28;20432;-72
2023/11/18 09:11:57;;;;;;;17.63;11.60;;;6.50;99.90;;;;;;4985598;28;20475;-70
2023/11/18 09:14:25;;;;;;;17.17;11.43;;;6.60;99.90;;;;;;5013073;28;20431;-71
2023/11/18 09:16:58;;;;;;;13.83;10.23;;;6.60;99.90;;;;;;4980025;28;20671;-72
2023/11/18 09:19:25;;;;;;;19.70;11.63;;;6.60;99.90;;;;;;4979883;28;20506;-70
2023/11/18 09:21:51;;;;;;;13.97;9.83;;;6.60;99.90;;;;;;4979707;28;20504;-69
2023/11/18 09:24:19;;;;;;;15.90;10.73;;;6.60;99.90;;;;;;4981349;28;20501;-70
2023/11/18 09:26:47;;;;;;;17.83;12.20;;;6.60;99.90;;;;;;4983710;28;20442;-74
2023/11/18 09:29:17;;;;;;;14.17;10.40;;;6.60;99.90;;;;;;5024957;28;20462;-74
2023/11/18 09:31:48;;;;;;;14.53;10.80;;;6.60;99.90;;;;;;4980994;28;20754;-74
2023/11/18 09:34:16;;;;;;;17.23;11.53;;;6.70;99.90;;;;;;4981916;28;20435;-73
2023/11/18 09:36:48;;;;;;;12.60;9.57;;;6.70;99.90;;;;;;4982116;28;20459;-74
2023/11/18 09:39:29;;;;;;;14.17;9.60;;;6.70;99.90;;;;;;4981849;28;20891;-70
2023/11/18 09:41:56;;;;;;;14.20;9.57;;;6.70;99.90;;;;;;4989223;28;20541;-69
2023/11/18 09:44:26;;;;;;;12.90;10.83;;;6.80;99.90;;;;;;5016421;28;20427;-75
2023/11/18 09:47:04;;;;;;;15.47;11.87;;;6.80;99.90;;;;;;5000408;28;20774;-74
2023/11/18 09:49:38;;;;;;;15.00;9.63;;;6.90;99.90;;;;;;4981110;28;20469;-75
2023/11/18 09:52:05;;;;;;;14.93;10.43;;;7.00;99.90;;;;;;4980221;28;20466;-70
2023/11/18 09:54:52;;;;;;;13.00;10.53;;;7.00;99.90;;;;;;4980374;28;20423;-72
2023/11/18 09:57:37;;;;;;;13.50;9.70;;;7.10;99.90;;;;;;4994335;28;20763;-72
2023/11/18 10:00:19;;;;;;;13.10;10.10;;;7.20;99.90;;;;;;5021892;28;20420;-72
2023/11/18 10:02:46;;;;;;;16.73;10.37;;;7.20;99.90;;;;;;4980610;28;20435;-71
2023/11/18 10:05:13;;;;;;;16.10;9.87;;;7.30;99.90;;;;;;4979803;28;20509;-71
2023/11/18 10:07:42;;;;;;;15.63;10.17;;;7.40;99.90;;;;;;4980242;28;20416;-73
2023/11/18 10:10:14;;;;;;;12.60;9.00;;;7.50;99.90;;;;;;4980109;28;20723;-71
2023/11/18 10:12:57;;;;;;;15.97;10.20;;;7.50;99.90;;;;;;4999761;28;20482;-72
2023/11/18 10:15:24;;;;;;;13.27;8.53;;;7.60;99.90;;;;;;5009369;28;20527;-75
2023/11/18 10:17:57;;;;;;;14.60;8.80;;;7.60;99.90;;;;;;4980921;28;20412;-74
2023/11/18 10:20:42;;;;;;;10.67;8.53;;;7.60;99.90;;;;;;4981358;28;20435;-72
2023/11/18 10:23:12;;;;;;;11.20;8.50;;;7.60;99.90;;;;;;4979850;28;20446;-72
2023/11/18 10:25:56;;;;;;;18.10;9.20;;;7.60;99.90;;;;;;4981346;28;20443;-74
2023/11/18 10:28:29;;;;;;;10.37;8.43;;;7.60;99.90;;;;;;4989784;28;20440;-74
2023/11/18 10:31:05;;;;;;;11.50;8.90;;;7.60;99.90;;;;;;4981345;28;20428;-72
2023/11/18 10:33:35;;;;;;;12.43;8.70;;;7.60;99.90;;;;;;4980198;28;20473;-69
2023/11/18 10:36:12;;;;;;;13.90;9.57;;;7.60;99.90;;;;;;4982083;28;20505;-69
2023/11/18 10:38:43;;;;;;;11.80;8.70;;;7.70;99.90;;;;;;4979639;28;20447;-71
2023/11/18 10:41:09;;;;;;;11.80;8.00;;;7.70;99.90;;;;;;4981634;28;20428;-72
2023/11/18 10:43:35;;;;;;;10.40;9.00;;;7.70;99.90;;;;;;4990317;28;20436;-71
2023/11/18 10:46:14;;;;;;;13.63;8.20;;;7.70;99.90;;;;;;4996297;28;20455;-71
2023/11/18 10:48:50;;;;;;;12.07;8.47;;;7.70;99.90;;;;;;4982090;28;20416;-75
2023/11/18 10:51:19;;;;;;;13.80;9.60;;;7.70;99.90;;;;;;4961284;28;20471;-73
2023/11/18 10:53:53;;;;;;;13.03;8.43;;;7.60;99.90;;;;;;4981452;28;20466;-75
2023/11/18 10:56:26;;;;;;;11.53;8.53;;;7.60;99.90;;;;;;4981128;28;20455;-74
2023/11/18 10:58:52;;;;;;;12.10;8.20;;;7.70;99.90;;;;;;5035403;28;20846;-73
2023/11/18 11:01:32;;;;;;;14.17;9.07;;;7.70;99.90;;;;;;4981471;28;20488;-72
2023/11/18 11:03:58;;;;;;;9.23;7.23;;;7.70;99.90;;;;;;4980338;28;20715;-72
2023/11/18 11:06:30;;;;;;;9.83;7.67;;;7.80;99.90;;;;;;4979517;28;20444;-71
2023/11/18 11:08:58;;;;;;;11.03;7.00;;;7.80;99.90;;;;;;4979637;28;20451;-71
2023/11/18 11:11:26;;;;;;;10.47;7.40;;;7.80;99.90;;;;;;4978482;28;20431;-72
2023/11/18 11:14:03;;;;;;;10.50;7.17;;;7.80;99.90;;;;;;5030584;28;20784;-74
2023/11/18 11:16:44;;;;;;;10.20;7.87;;;7.70;99.90;;;;;;4980887;28;20953;-75
2023/11/18 11:19:34;;;;;;;9.77;7.70;;;7.70;99.90;;;;;;4971928;28;20416;-73
2023/11/18 11:22:06;;;;;;;9.20;7.03;;;7.80;99.90;;;;;;4980082;28;20486;-71
2023/11/18 11:24:49;;;;;;;10.00;6.73;;;7.80;99.90;;;;;;4979166;28;20440;-72
2023/11/18 11:27:35;;;;;;;9.27;5.70;;;7.80;99.90;;;;;;5001205;28;20419;-74
2023/11/18 11:30:22;;;;;;;8.80;6.53;;;7.80;99.90;;;;;;4986473;28;20416;-72
2023/11/18 11:33:14;;;;;;;8.03;6.60;;;7.80;99.90;;;;;;4980642;28;20897;-71
2023/11/18 11:35:46;;;;;;;9.63;6.90;;;7.80;99.90;;;;;;4980355;28;20452;-72
2023/11/18 11:38:16;;;;;;;11.03;7.03;;;7.80;99.90;;;;;;4979066;28;20412;-71
2023/11/18 11:40:42;;;;;;;6.07;5.40;;;7.80;99.90;;;;;;4979889;28;20436;-73
2023/11/18 11:43:10;;;;;;;10.10;6.70;;;7.80;99.90;;;;;;5019865;28;20863;-73
2023/11/18 11:45:39;;;;;;;8.37;6.40;;;7.80;99.90;;;;;;5044631;28;20216;-72
2023/11/18 11:48:14;;;;;;;10.67;8.00;;;7.80;99.90;;;;;;5011099;28;20423;-74
2023/11/18 11:50:55;;;;;;;9.40;6.70;;;7.80;99.90;;;;;;4980283;28;20458;-71
2023/11/18 11:53:25;;;;;;;10.03;7.53;;;7.80;99.90;;;;;;4980296;28;20878;-74
2023/11/18 11:56:05;;;;;;;10.73;7.87;;;7.80;99.90;;;;;;4978820;28;20906;-70
2023/11/18 11:58:33;;;;;;;9.47;6.40;;;7.80;99.90;;;;;;5014347;28;20450;-74
2023/11/18 12:01:17;;;;;;;9.70;7.30;;;7.80;99.90;;;;;;4979126;28;20859;-73
2023/11/18 12:03:47;;;;;;;9.97;7.47;;;7.70;99.90;;;;;;4971087;28;20431;-73
2023/11/18 12:06:21;;;;;;;12.93;7.70;;;7.80;99.90;;;;;;4980603;28;20486;-73
2023/11/18 12:08:48;;;;;;;9.00;7.20;;;7.90;99.90;;;;;;4980825;28;20706;-72
2023/11/18 12:11:15;;;;;;;7.90;6.37;;;7.90;99.90;;;;;;4977567;28;20424;-72
2023/11/18 12:14:19;;;;;;;6.80;6.10;;;8.00;99.90;;;;;;4996311;28;20427;-75
2023/11/18 12:17:07;;;;;;;9.93;6.00;;;8.00;99.90;;;;;;4984233;28;20435;-72
2023/11/18 12:19:46;;;;;;;10.00;7.07;;;8.00;99.90;;;;;;4979261;28;20710;-73
2023/11/18 12:22:17;;;;;;;10.13;7.13;;;8.10;99.90;;;;;;4980173;28;20450;-73
2023/11/18 12:24:58;;;;;;;7.40;5.50;;;8.10;99.90;;;;;;4981220;28;20478;-75
2023/11/18 12:27:39;;;;;;;10.27;6.37;;;8.10;99.90;;;;;;4974436;28;20441;-72
2023/11/18 12:30:29;;;;;;;8.03;6.40;;;8.10;99.90;;;;;;4980333;28;20431;-71
2023/11/18 12:33:05;;;;;;;10.40;6.40;;;8.10;99.90;;;;;;4993110;28;20480;-74
2023/11/18 12:35:38;;;;;;;13.80;8.23;;;8.10;99.90;;;;;;4980528;28;20475;-73
2023/11/18 12:38:24;;;;;;;8.40;6.27;;;8.10;99.90;;;;;;4979476;28;20428;-73
2023/11/18 12:40:59;;;;;;;13.27;7.33;;;8.00;99.90;;;;;;4980852;28;20824;-73
2023/11/18 12:43:58;;;;;;;10.57;6.93;;;8.10;99.90;;;;;;4992315;28;20459;-74
2023/11/18 12:46:45;;;;;;;9.00;6.03;;;8.10;99.90;;;;;;5009563;28;20451;-74
2023/11/18 12:49:17;;;;;;;10.03;6.40;;;8.10;99.90;;;;;;4983035;28;20495;-72
2023/11/18 12:51:46;;;;;;;10.63;6.00;;;8.10;99.90;;;;;;4985462;28;20478;-73